Time;durP1;ratioP1;P1;durP2;ratioP2;P2;SDS_P1;SDS_P2;PMS_P1;PMS_P2;Temp;Humidity;BMP_temperature;BMP_pressure;BME280_temperature;BME280_humidity;BME280_pressure;Samples;Min_cycle;Max_cycle;Signal;HPM_P1;HPM_P2
2020/12/17 07:07:18;;;;;;;1.85;1.40;;;;;;;1.13;77.24;101405.24;1804176;78;23039;-41
2020/12/17 07:09:49;;;;;;;4.53;2.50;;;;;;;1.06;77.22;101411.75;1780330;80;21654;-41
2020/12/17 07:12:38;;;;;;;4.03;2.75;;;;;;;1.04;77.29;101413.33;1779968;79;21138;-41
2020/12/17 07:15:38;;;;;;;2.17;1.72;;;;;;;1.07;77.27;101413.52;1791411;78;23018;-36
2020/12/17 07:18:25;;;;;;;4.35;2.65;;;;;;;1.02;77.13;101409.80;1777573;78;21484;-37
2020/12/17 07:21:06;;;;;;;11.00;4.80;;;;;;;1.03;77.11;101415.43;1719519;81;21216;-42
2020/12/17 07:23:39;;;;;;;8.93;5.33;;;;;;;1.02;77.25;101417.13;1723232;81;21360;-37
2020/12/17 07:26:16;;;;;;;9.23;5.45;;;;;;;0.96;77.67;101411.62;1716092;81;21594;-38
2020/12/17 07:28:59;;;;;;;4.95;3.25;;;;;;;0.93;77.54;101413.13;1689145;81;21695;-40
2020/12/17 07:31:31;;;;;;;5.50;3.15;;;;;;;0.85;77.51;101412.70;1714356;81;21540;-36
2020/12/17 07:34:00;;;;;;;5.95;2.33;;;;;;;0.74;77.89;101412.09;1716316;81;21170;-35
2020/12/17 07:36:47;;;;;;;7.67;3.80;;;;;;;0.68;78.19;101414.31;1686065;81;21688;-35
2020/12/17 07:39:16;;;;;;;5.72;3.40;;;;;;;0.58;78.52;101417.56;1713840;81;21169;-36
2020/12/17 07:41:44;;;;;;;8.48;4.22;;;;;;;0.51;79.04;101425.34;1715603;81;21489;-35
2020/12/17 07:44:20;;;;;;;5.78;3.75;;;;;;;0.46;79.33;101426.75;1718909;81;21150;-36
2020/12/17 07:46:54;;;;;;;10.88;4.40;;;;;;;0.43;79.52;101436.89;1710068;81;21832;-40
2020/12/17 07:49:30;;;;;;;20.68;6.97;;;;;;;0.39;79.94;101432.34;1715351;81;21622;-35
2020/12/17 07:52:00;;;;;;;24.87;9.63;;;;;;;0.38;80.20;101432.75;1716978;81;21604;-35
2020/12/17 07:54:32;;;;;;;14.03;6.45;;;;;;;0.42;80.30;101431.25;1734540;80;21131;-36
2020/12/17 07:57:01;;;;;;;6.67;3.67;;;;;;;0.47;80.45;101429.44;1746362;80;21204;-36
2020/12/17 07:59:31;;;;;;;6.08;3.08;;;;;;;0.53;80.36;101432.38;1741445;80;21644;-42
2020/12/17 08:02:05;;;;;;;6.70;3.37;;;;;;;0.52;80.16;101436.12;1711905;81;21198;-36
2020/12/17 08:04:36;;;;;;;5.37;3.70;;;;;;;0.47;80.20;101427.27;1746665;80;21309;-42
2020/12/17 08:07:08;;;;;;;7.25;4.20;;;;;;;0.39;80.16;101424.63;1727517;81;21187;-41
2020/12/17 08:09:38;;;;;;;7.25;3.92;;;;;;;0.35;80.59;101432.95;1711087;81;21337;-39
2020/12/17 08:12:10;;;;;;;7.47;3.67;;;;;;;0.33;81.02;101431.58;1717682;81;21307;-40
2020/12/17 08:14:40;;;;;;;7.17;4.45;;;;;;;0.30;81.18;101428.84;1702373;81;21777;-40
2020/12/17 08:17:08;;;;;;;4.58;3.35;;;;;;;0.32;81.70;101433.67;1708687;82;21585;-36
2020/12/17 08:19:43;;;;;;;5.92;3.90;;;;;;;0.37;81.82;101433.95;1741917;80;21256;-41
2020/12/17 08:22:29;;;;;;;4.40;3.40;;;;;;;0.39;81.91;101431.06;1736967;80;21138;-36
2020/12/17 08:25:09;;;;;;;7.55;3.65;;;;;;;0.40;81.95;101432.83;1706849;82;21190;-37
2020/12/17 08:27:38;;;;;;;3.67;2.77;;;;;;;0.44;81.97;101429.64;1727011;80;21553;-39
2020/12/17 08:30:55;;;;;;;5.08;3.10;;;;;;;0.46;82.01;101428.92;1701626;80;21179;-36
2020/12/17 08:41:56;;;;;;;10.18;5.75;;;;;;;0.52;81.91;101429.68;1728385;80;21176;-40
2020/12/17 08:44:28;;;;;;;14.80;5.25;;;;;;;0.47;81.87;101424.29;1727492;80;21382;-36
2020/12/17 08:47:00;;;;;;;16.30;6.75;;;;;;;0.44;82.15;101428.36;1732660;80;21155;-40
2020/12/17 08:49:29;;;;;;;12.63;7.22;;;;;;;0.50;82.47;101432.58;1730563;80;21633;-40
2020/12/17 08:51:57;;;;;;;10.55;4.42;;;;;;;0.53;82.11;101434.95;1733878;80;21174;-41
2020/12/17 08:54:36;;;;;;;11.40;4.75;;;;;;;0.49;81.67;101431.69;1730054;80;21163;-36
2020/12/17 08:57:11;;;;;;;8.35;4.00;;;;;;;0.47;82.03;101425.58;1704896;82;21844;-41
2020/12/17 08:59:39;;;;;;;5.17;3.02;;;;;;;0.47;81.94;101430.73;1676896;82;21424;-41
2020/12/17 09:02:07;;;;;;;6.72;4.10;;;;;;;0.50;82.12;101426.14;1773653;79;21789;-41
2020/12/17 09:04:35;;;;;;;5.03;3.50;;;;;;;0.53;82.13;101423.36;1773953;79;21195;-37
2020/12/17 09:07:03;;;;;;;5.22;3.12;;;;;;;0.61;82.43;101422.91;1774398;79;21191;-36
2020/12/17 09:10:08;;;;;;;4.78;3.72;;;;;;;0.65;82.10;101415.85;1736577;80;21151;-37
2020/12/17 09:21:28;;;;;;;4.17;2.90;;;;;;;0.65;81.43;101413.28;1765117;79;21118;-41
2020/12/17 09:25:42;;;;;;;4.03;2.70;;;;;;;0.60;81.23;101412.13;1767144;79;21123;-36
2020/12/17 09:29:09;;;;;;;2.85;2.40;;;;;;;0.63;81.85;101412.28;1746842;80;21148;-36
2020/12/17 09:31:37;;;;;;;3.58;2.45;;;;;;;0.67;81.22;101412.55;1714790;81;21163;-37
2020/12/17 09:34:17;;;;;;;3.47;2.60;;;;;;;0.68;81.03;101407.88;1713648;81;21445;-38
2020/12/17 09:36:57;;;;;;;3.92;2.92;;;;;;;0.71;80.78;101408.47;1717976;82;21489;-36
2020/12/17 09:39:25;;;;;;;4.87;3.60;;;;;;;0.73;80.54;101407.75;1766926;79;21168;-36
2020/12/17 09:41:59;;;;;;;3.12;2.67;;;;;;;0.72;80.46;101407.27;1769174;79;21189;-36
2020/12/17 09:44:36;;;;;;;4.03;3.20;;;;;;;0.73;80.09;101410.32;1726357;79;21349;-41
2020/12/17 09:47:05;;;;;;;4.80;3.30;;;;;;;0.76;80.05;101407.05;1771590;79;21648;-36
2020/12/17 09:49:39;;;;;;;4.90;3.65;;;;;;;0.79;79.88;101398.19;1772869;79;21187;-36
2020/12/17 09:52:17;;;;;;;3.12;2.70;;;;;;;0.79;79.14;101402.94;1772695;79;21613;-41
2020/12/17 10:19:22;;;;;;;3.40;2.60;;;;;;;1.65;75.98;101391.31;1727214;80;23321;-38
2020/12/17 10:39:10;;;;;;;;;;;;;;;;;;;;;
2020/12/17 10:42:50;;;;;;;1.95;1.60;;;;;;;1.43;76.10;101377.66;1795326;78;27853;-37
2020/12/17 10:51:13;;;;;;;3.33;2.52;;;;;;;1.32;76.52;101373.20;1733826;80;21613;-38
2020/12/17 11:06:48;;;;;;;9.30;3.90;;;;;;;0.95;78.30;101374.18;1659869;83;21190;-37
2020/12/17 11:13:37;;;;;;;5.30;3.80;;;;;;;0.82;79.12;101376.48;1645358;85;21495;-37
2020/12/17 11:20:16;;;;;;;9.80;5.03;;;;;;;0.77;79.82;101371.47;1625447;86;21193;-37
2020/12/17 11:24:01;;;;;;;7.55;4.75;;;;;;;0.69;80.11;101371.01;1598554;87;21193;-38
2020/12/17 11:27:00;;;;;;;6.33;4.08;;;;;;;0.67;80.83;101367.47;1600937;88;21969;-36
2020/12/17 11:33:31;;;;;;;11.48;5.70;;;;;;;0.80;81.12;101366.47;1611802;87;21466;-38
2020/12/17 11:40:58;;;;;;;5.17;3.72;;;;;;;0.92;81.27;101364.98;1616651;87;21669;-37
2020/12/17 11:44:07;;;;;;;5.05;3.45;;;;;;;0.99;80.94;101360.67;1592010;87;21559;-36
2020/12/17 11:50:23;;;;;;;14.50;7.12;;;;;;;1.13;80.33;101366.17;1598339;88;21281;-36
2020/12/17 11:53:23;;;;;;;21.30;9.08;;;;;;;1.18;79.91;101368.59;1598831;88;21315;-36
2020/12/17 11:56:01;;;;;;;13.53;6.65;;;;;;;1.17;79.56;101369.81;1535483;89;21544;-37
2020/12/17 11:59:43;;;;;;;16.35;8.60;;;;;;;1.20;79.51;101366.98;1640327;86;21251;-39
